createdAt,value
2022-10-25T00:00:24.038Z,97542.55
2022-10-25T00:03:01.306Z,97540.70
2022-10-25T00:05:35.845Z,97544.99
2022-10-25T00:08:12.155Z,97542.92
2022-10-25T00:10:46.729Z,97541.17
2022-10-25T00:13:25.706Z,97542.75
2022-10-25T00:16:00.921Z,97547.00
2022-10-25T00:18:36.502Z,97550.77
2022-10-25T00:21:11.370Z,97550.34
2022-10-25T00:23:46.783Z,97547.05
2022-10-25T00:26:22.040Z,97551.56
2022-10-25T00:28:59.027Z,97554.92
2022-10-25T00:31:50.367Z,97554.36
2022-10-25T00:34:24.546Z,97551.38
2022-10-25T00:37:00.407Z,97547.02
2022-10-25T00:39:34.522Z,97547.84
2022-10-25T00:42:10.809Z,97548.67
2022-10-25T00:44:58.810Z,97550.39
2022-10-25T00:47:47.400Z,97545.66
2022-10-25T00:50:51.203Z,97539.91
2022-10-25T00:53:30.157Z,97546.42
2022-10-25T00:56:14.775Z,97542.77
2022-10-25T00:58:53.009Z,97548.14
2022-10-25T01:01:45.725Z,97546.33
2022-10-25T01:04:23.521Z,97544.23
2022-10-25T01:06:56.993Z,97543.60
2022-10-25T01:09:28.203Z,97542.16
2022-10-25T01:12:00.485Z,97543.37
2022-10-25T01:14:33.964Z,97544.55
2022-10-25T01:17:09.381Z,97544.88
2022-10-25T01:20:00.040Z,97549.98
2022-10-25T01:22:37.272Z,97543.04
2022-10-25T01:25:39.383Z,97544.98
2022-10-25T01:28:15.487Z,97547.33
2022-10-25T01:31:14.122Z,97549.20
2022-10-25T01:33:53.954Z,97551.13
2022-10-25T01:36:36.331Z,97549.88
2022-10-25T01:39:14.242Z,97549.17
2022-10-25T01:41:57.638Z,97550.86
2022-10-25T01:44:40.366Z,97551.17
2022-10-25T01:47:19.073Z,97551.15
2022-10-25T01:49:58.037Z,97551.98
2022-10-25T01:52:30.692Z,97547.39
2022-10-25T01:55:04.111Z,97550.33
2022-10-25T01:57:50.352Z,97547.55
2022-10-25T02:00:25.238Z,97548.27
2022-10-25T02:03:14.973Z,97543.27
2022-10-25T02:05:56.051Z,97536.00
2022-10-25T02:08:37.382Z,97533.40
2022-10-25T02:11:21.273Z,97525.05
2022-10-25T02:13:59.733Z,97521.71
2022-10-25T02:16:39.423Z,97525.86
2022-10-25T02:19:15.914Z,97523.37
2022-10-25T02:21:50.198Z,97529.16
2022-10-25T02:24:26.883Z,97531.83
2022-10-25T02:27:00.576Z,97533.99
2022-10-25T02:29:35.411Z,97534.26
2022-10-25T02:32:08.219Z,97535.40
2022-10-25T02:34:43.863Z,97531.55
2022-10-25T02:37:16.313Z,97536.91
2022-10-25T02:39:49.924Z,97537.24
2022-10-25T02:42:23.241Z,97548.14
2022-10-25T02:44:55.472Z,97555.95
2022-10-25T02:47:27.731Z,97549.08
2022-10-25T02:49:59.911Z,97548.86
2022-10-25T02:52:32.673Z,97549.80
2022-10-25T02:55:04.809Z,97556.68
2022-10-25T02:57:39.403Z,97557.04
2022-10-25T03:00:13.986Z,97552.80
2022-10-25T03:02:46.386Z,97554.37
2022-10-25T03:05:18.913Z,97557.45
2022-10-25T03:07:51.004Z,97558.40
2022-10-25T03:10:23.103Z,97556.61
2022-10-25T03:12:55.173Z,97550.27
2022-10-25T03:15:27.202Z,97555.11
2022-10-25T03:18:04.593Z,97552.16
2022-10-25T03:20:37.055Z,97547.86
2022-10-25T03:23:09.961Z,97544.86
2022-10-25T03:25:42.281Z,97543.59
2022-10-25T03:28:14.471Z,97535.38
2022-10-25T03:30:46.742Z,97537.55
2022-10-25T03:33:18.882Z,97532.69
2022-10-25T03:35:53.486Z,97530.11
2022-10-25T03:38:25.744Z,97529.36
2022-10-25T03:40:58.304Z,97538.05
2022-10-25T03:43:30.683Z,97544.23
2022-10-25T03:46:03.011Z,97541.74
2022-10-25T03:48:35.181Z,97541.52
2022-10-25T03:51:07.643Z,97539.96
2022-10-25T03:53:41.595Z,97544.94
2022-10-25T03:56:13.624Z,97548.57
2022-10-25T03:58:45.782Z,97543.44
2022-10-25T04:01:18.121Z,97542.11
2022-10-25T04:03:50.356Z,97548.11
2022-10-25T04:06:22.423Z,97548.20
2022-10-25T04:08:54.572Z,97547.98
2022-10-25T04:11:26.766Z,97545.62
2022-10-25T04:13:58.811Z,97544.98
2022-10-25T04:16:30.952Z,97545.77
2022-10-25T04:19:03.665Z,97545.05
2022-10-25T04:21:36.041Z,97547.13
2022-10-25T04:24:08.974Z,97544.66
2022-10-25T04:26:41.143Z,97546.01
2022-10-25T04:29:13.661Z,97545.72
2022-10-25T04:31:46.292Z,97543.26
2022-10-25T04:34:19.813Z,97548.39
2022-10-25T04:36:52.009Z,97547.10
2022-10-25T04:39:24.513Z,97549.77
2022-10-25T04:41:56.791Z,97551.70
2022-10-25T04:44:29.042Z,97553.36
2022-10-25T04:47:01.155Z,97550.83
2022-10-25T04:49:33.712Z,97555.86
2022-10-25T04:52:06.114Z,97555.52
2022-10-25T04:54:38.302Z,97561.96
2022-10-25T04:57:10.642Z,97562.91
2022-10-25T04:59:42.733Z,97569.23
2022-10-25T05:02:15.633Z,97567.48
2022-10-25T05:04:47.635Z,97567.52
2022-10-25T05:07:22.623Z,97565.98
2022-10-25T05:09:54.631Z,97564.73
2022-10-25T05:12:27.886Z,97569.02
2022-10-25T05:14:59.874Z,97570.09
2022-10-25T05:17:32.302Z,97565.83
2022-10-25T05:20:05.537Z,97565.10
2022-10-25T05:22:40.693Z,97565.14
2022-10-25T05:25:13.092Z,97567.48
2022-10-25T05:27:48.234Z,97572.39
2022-10-25T05:30:20.502Z,97573.23
2022-10-25T05:32:52.833Z,97575.18
2022-10-25T05:35:25.162Z,97570.77
2022-10-25T05:37:57.304Z,97571.98
2022-10-25T05:40:29.511Z,97571.99
2022-10-25T05:43:01.772Z,97577.61
2022-10-25T05:45:33.823Z,97578.65
2022-10-25T05:48:08.525Z,97577.13
2022-10-25T05:53:18.813Z,97577.11
2022-10-25T05:55:50.935Z,97583.20
2022-10-25T05:58:23.352Z,97586.49
2022-10-25T06:00:55.888Z,97585.20
2022-10-25T06:03:28.923Z,97590.80
2022-10-25T06:06:05.221Z,97590.83
2022-10-25T06:08:42.266Z,97597.56
2022-10-25T06:11:16.472Z,97602.26
2022-10-25T06:13:48.825Z,97603.55
2022-10-25T06:16:22.378Z,97605.67
2022-10-25T06:18:52.713Z,97604.88
2022-10-25T06:21:26.592Z,97605.52
2022-10-25T06:23:59.943Z,97604.67
2022-10-25T06:26:33.153Z,97603.77
2022-10-25T06:29:07.074Z,97606.98
2022-10-25T06:31:39.383Z,97612.96
2022-10-25T06:34:11.663Z,97618.33
2022-10-25T06:36:43.963Z,97618.92
2022-10-25T06:39:16.281Z,97621.53
2022-10-25T06:41:48.682Z,97623.57
2022-10-25T06:44:21.234Z,97622.01
2022-10-25T06:47:16.544Z,97623.76
2022-10-25T06:49:49.773Z,97625.59
2022-10-25T06:52:22.016Z,97634.20
2022-10-25T06:54:57.355Z,97632.41
2022-10-25T06:57:30.134Z,97636.87
2022-10-25T07:00:02.581Z,97633.21
2022-10-25T07:02:34.763Z,97636.25
2022-10-25T07:05:07.344Z,97633.33
2022-10-25T07:07:40.523Z,97638.67
2022-10-25T07:10:13.063Z,97639.21
2022-10-25T07:12:45.461Z,97639.34
2022-10-25T07:17:57.822Z,97634.02
2022-10-25T07:20:30.002Z,97633.93
2022-10-25T07:23:05.393Z,97629.56
2022-10-25T07:25:40.643Z,97629.34
2022-10-25T07:28:13.933Z,97636.96
2022-10-25T07:30:49.040Z,97636.70
2022-10-25T07:33:22.644Z,97638.58
2022-10-25T07:36:05.952Z,97640.67
2022-10-25T07:38:42.614Z,97650.47
2022-10-25T07:41:14.981Z,97654.98
2022-10-25T07:43:47.633Z,97656.19
2022-10-25T07:46:20.047Z,97656.76
2022-10-25T07:48:52.983Z,97663.18
2022-10-25T07:51:25.217Z,97668.66
2022-10-25T07:53:57.771Z,97668.14
2022-10-25T07:56:30.592Z,97669.86
2022-10-25T07:59:03.206Z,97671.13
2022-10-25T08:01:35.224Z,97672.54
2022-10-25T08:04:07.631Z,97672.51
2022-10-25T08:06:42.367Z,97672.77
2022-10-25T08:09:33.170Z,97670.14
2022-10-25T08:12:06.799Z,97675.22
2022-10-25T08:14:41.624Z,97671.46
2022-10-25T08:17:17.747Z,97676.20
2022-10-25T08:19:51.989Z,97674.11
2022-10-25T08:22:25.286Z,97665.29
2022-10-25T08:24:59.063Z,97657.55
2022-10-25T08:27:31.164Z,97655.22
2022-10-25T08:30:03.423Z,97655.91
2022-10-25T08:32:38.689Z,97649.62
2022-10-25T08:35:11.591Z,97644.77
2022-10-25T08:37:44.389Z,97644.52
2022-10-25T08:40:22.643Z,97645.39
2022-10-25T08:43:09.615Z,97648.08
2022-10-25T08:45:51.794Z,97645.33
2022-10-25T08:48:32.163Z,97643.34
2022-10-25T08:51:13.912Z,97638.56
2022-10-25T08:53:51.955Z,97634.67
2022-10-25T08:56:25.230Z,97636.42
2022-10-25T08:59:01.292Z,97640.36
2022-10-25T09:01:38.872Z,97637.78
2022-10-25T09:04:11.214Z,97641.73
2022-10-25T09:06:52.332Z,97641.45
2022-10-25T09:09:30.743Z,97648.20
2022-10-25T09:12:14.480Z,97652.09
2022-10-25T09:14:47.692Z,97658.91
2022-10-25T09:17:23.275Z,97660.83
2022-10-25T09:20:07.984Z,97656.36
2022-10-25T09:22:47.564Z,97658.86
2022-10-25T09:25:27.025Z,97665.48
2022-10-25T09:28:04.023Z,97669.50
2022-10-25T09:30:41.344Z,97670.17
2022-10-25T09:35:53.540Z,97672.60
2022-10-25T09:38:28.198Z,97683.52
2022-10-25T09:41:08.324Z,97687.98
2022-10-25T09:43:45.648Z,97692.85
2022-10-25T09:46:24.574Z,97692.98
2022-10-25T09:49:02.333Z,97697.39
2022-10-25T09:51:40.183Z,97699.60
2022-10-25T09:54:20.893Z,97700.59
2022-10-25T09:56:52.964Z,97701.55
2022-10-25T09:59:25.448Z,97702.89
2022-10-25T10:02:01.057Z,97701.23
2022-10-25T10:04:38.372Z,97709.20
2022-10-25T10:07:20.158Z,97711.63
2022-10-25T10:09:54.012Z,97714.20
2022-10-25T10:12:32.383Z,97703.92
2022-10-25T10:15:08.527Z,97707.37
2022-10-25T10:17:40.694Z,97701.56
2022-10-25T10:20:16.275Z,97696.98
2022-10-25T10:22:53.775Z,97692.96
2022-10-25T10:25:28.771Z,97693.90
2022-10-25T10:28:01.277Z,97689.88
2022-10-25T10:30:39.292Z,97689.81
2022-10-25T10:33:19.482Z,97682.86
2022-10-25T10:35:54.776Z,97683.64
2022-10-25T10:38:29.773Z,97680.89
2022-10-25T10:41:16.442Z,97676.05
2022-10-25T10:43:50.015Z,97674.19
2022-10-25T10:46:24.965Z,97673.48
2022-10-25T10:48:59.536Z,97672.73
2022-10-25T10:51:44.751Z,97668.38
2022-10-25T10:54:24.815Z,97668.03
2022-10-25T10:57:02.751Z,97670.74
2022-10-25T10:59:40.693Z,97671.98
2022-10-25T11:02:34.275Z,97674.30
2022-10-25T11:05:18.911Z,97676.81
2022-10-25T11:07:54.441Z,97678.35
2022-10-25T11:10:32.784Z,97675.64
2022-10-25T11:13:14.604Z,97676.89
2022-10-25T11:16:02.563Z,97682.80
2022-10-25T11:18:46.975Z,97678.94
2022-10-25T11:21:35.960Z,97673.02
2022-10-25T11:24:19.511Z,97670.63
2022-10-25T11:26:58.390Z,97676.27
2022-10-25T11:29:47.981Z,97676.89
2022-10-25T11:32:50.439Z,97674.95
2022-10-25T11:35:40.025Z,97674.37
2022-10-25T11:38:21.715Z,97677.64
2022-10-25T11:41:09.924Z,97679.96
2022-10-25T11:44:01.133Z,97680.38
2022-10-25T11:46:42.822Z,97679.59
2022-10-25T11:49:44.971Z,97681.60
2022-10-25T11:52:36.079Z,97680.78
2022-10-25T11:55:22.521Z,97683.05
2022-10-25T11:58:09.442Z,97688.25
2022-10-25T12:00:53.312Z,97686.73
2022-10-25T12:03:42.471Z,97688.09
2022-10-25T12:06:23.661Z,97688.91
2022-10-25T12:09:06.255Z,97693.42
2022-10-25T12:11:45.822Z,97693.38
2022-10-25T12:14:24.992Z,97691.80
2022-10-25T12:16:59.884Z,97693.77
2022-10-25T12:19:40.671Z,97691.83
2022-10-25T12:22:22.801Z,97691.74
2022-10-25T12:25:01.887Z,97690.39
2022-10-25T12:27:38.897Z,97690.80
2022-10-25T12:30:20.065Z,97686.20
2022-10-25T12:32:57.731Z,97680.79
2022-10-25T12:35:32.593Z,97681.73
2022-10-25T12:38:12.314Z,97679.16
2022-10-25T12:40:48.672Z,97676.96
2022-10-25T12:43:31.813Z,97677.80
2022-10-25T12:46:18.195Z,97685.59
2022-10-25T12:49:20.232Z,97680.72
2022-10-25T12:52:07.522Z,97680.35
2022-10-25T12:55:27.087Z,97680.39
2022-10-25T12:58:12.071Z,97685.39
2022-10-25T13:00:57.973Z,97689.66
2022-10-25T13:04:10.752Z,97692.87
2022-10-25T13:06:45.424Z,97697.15
2022-10-25T13:09:22.303Z,97698.48
2022-10-25T13:12:04.424Z,97701.03
2022-10-25T13:14:39.129Z,97703.66
2022-10-25T13:18:01.049Z,97706.06
2022-10-25T13:20:53.751Z,97702.67
2022-10-25T13:24:03.086Z,97702.73
2022-10-25T13:26:57.243Z,97703.95
2022-10-25T13:30:00.549Z,97710.92
2022-10-25T13:32:33.987Z,97708.42
2022-10-25T13:35:27.092Z,97709.70
2022-10-25T13:38:10.214Z,97711.64
2022-10-25T13:40:42.703Z,97710.90
2022-10-25T13:43:22.571Z,97711.49
2022-10-25T13:45:57.892Z,97710.80
2022-10-25T13:48:35.125Z,97714.73
2022-10-25T13:51:22.283Z,97712.83
2022-10-25T13:53:56.223Z,97716.23
2022-10-25T13:56:52.451Z,97721.99
2022-10-25T14:00:02.487Z,97723.27
2022-10-25T14:03:22.934Z,97726.44
2022-10-25T14:06:17.552Z,97727.88
2022-10-25T14:08:56.233Z,97734.46
2022-10-25T14:11:39.036Z,97733.05
2022-10-25T14:14:23.963Z,97744.08
2022-10-25T14:17:16.732Z,97748.86
2022-10-25T14:19:52.721Z,97749.23
2022-10-25T14:22:33.093Z,97747.52
2022-10-25T14:25:11.462Z,97749.64
2022-10-25T14:27:46.265Z,97749.91
2022-10-25T14:30:26.462Z,97744.98
2022-10-25T14:33:00.998Z,97745.34
2022-10-25T14:35:37.429Z,97747.00
2022-10-25T14:38:21.082Z,97745.00
2022-10-25T14:40:58.773Z,97745.73
2022-10-25T14:43:33.531Z,97747.27
2022-10-25T14:46:14.896Z,97746.63
2022-10-25T14:48:49.219Z,97746.05
2022-10-25T14:51:26.372Z,97744.77
2022-10-25T14:54:03.603Z,97743.27
2022-10-25T14:56:41.570Z,97738.55
2022-10-25T14:59:21.646Z,97734.41
2022-10-25T15:01:59.985Z,97727.19
2022-10-25T15:04:37.133Z,97713.80
2022-10-25T15:07:18.272Z,97717.26
2022-10-25T15:09:54.522Z,97722.86
2022-10-25T15:12:28.186Z,97733.63
2022-10-25T15:15:21.521Z,97747.63
2022-10-25T15:17:54.131Z,97745.00
2022-10-25T15:20:34.911Z,97746.35
2022-10-25T15:23:08.434Z,97745.92
2022-10-25T15:25:45.864Z,97746.41
2022-10-25T15:28:20.034Z,97756.87
2022-10-25T15:31:13.536Z,97756.98
2022-10-25T15:33:49.509Z,97753.38
2022-10-25T15:36:23.886Z,97755.55
2022-10-25T15:39:08.998Z,97757.79
2022-10-25T15:41:42.524Z,97763.95
2022-10-25T15:44:14.753Z,97768.41
2022-10-25T15:46:48.557Z,97778.32
2022-10-25T15:49:21.964Z,97785.56
2022-10-25T15:51:55.763Z,97781.75
2022-10-25T15:54:28.988Z,97781.52
2022-10-25T15:57:01.115Z,97784.68
2022-10-25T15:59:33.702Z,97780.98
2022-10-25T16:02:13.024Z,97778.59
2022-10-25T16:04:45.651Z,97776.37
2022-10-25T16:07:20.162Z,97779.77
2022-10-25T16:09:52.355Z,97785.58
2022-10-25T16:12:31.798Z,97784.20
2022-10-25T16:15:06.674Z,97785.09
2022-10-25T16:17:38.941Z,97789.77
2022-10-25T16:20:18.420Z,97789.02
2022-10-25T16:22:51.162Z,97796.98
2022-10-25T16:25:27.695Z,97803.33
2022-10-25T16:28:01.554Z,97807.53
2022-10-25T16:30:37.466Z,97806.35
2022-10-25T16:33:11.671Z,97805.58
2022-10-25T16:35:47.306Z,97804.45
2022-10-25T16:38:19.550Z,97798.05
2022-10-25T16:40:51.683Z,97793.72
2022-10-25T16:43:23.843Z,97798.98
2022-10-25T16:45:56.139Z,97800.48
2022-10-25T16:48:30.140Z,97797.86
2022-10-25T16:51:02.523Z,97795.08
2022-10-25T16:53:35.135Z,97798.80
2022-10-25T16:56:09.473Z,97801.96
2022-10-25T16:58:42.498Z,97801.21
2022-10-25T17:01:28.273Z,97800.94
2022-10-25T17:04:01.163Z,97803.00
2022-10-25T17:06:42.700Z,97803.42
2022-10-25T17:09:15.429Z,97803.48
2022-10-25T17:11:49.072Z,97804.39
2022-10-25T17:14:21.262Z,97805.52
2022-10-25T17:16:53.912Z,97807.91
2022-10-25T17:19:26.302Z,97806.79
2022-10-25T17:21:59.847Z,97809.10
2022-10-25T17:24:33.353Z,97806.88
2022-10-25T17:27:08.256Z,97807.97
2022-10-25T17:29:40.754Z,97808.33
2022-10-25T17:32:13.021Z,97809.73
2022-10-25T17:34:47.571Z,97814.30
2022-10-25T17:37:23.124Z,97816.33
2022-10-25T17:39:55.432Z,97817.83
2022-10-25T17:42:28.713Z,97818.03
2022-10-25T17:45:00.734Z,97819.80
2022-10-25T17:47:32.803Z,97822.81
2022-10-25T17:50:06.028Z,97830.47
2022-10-25T17:52:41.612Z,97834.77
2022-10-25T17:55:14.194Z,97842.42
2022-10-25T17:57:47.215Z,97842.27
2022-10-25T18:00:20.675Z,97841.77
2022-10-25T18:02:54.386Z,97845.14
2022-10-25T18:05:26.463Z,97846.45
2022-10-25T18:07:58.682Z,97846.83
2022-10-25T18:10:30.781Z,97849.15
2022-10-25T18:13:03.154Z,97850.55
2022-10-25T18:15:35.956Z,97852.71
2022-10-25T18:18:08.223Z,97855.61
2022-10-25T18:20:41.652Z,97854.89
2022-10-25T18:23:13.761Z,97852.02
2022-10-25T18:25:53.709Z,97847.30
2022-10-25T18:28:26.315Z,97849.11
2022-10-25T18:31:07.122Z,97847.39
2022-10-25T18:33:43.094Z,97844.48
2022-10-25T18:36:21.009Z,97844.14
2022-10-25T18:38:54.811Z,97843.27
2022-10-25T18:41:25.851Z,97840.21
2022-10-25T18:43:58.212Z,97839.95
2022-10-25T18:46:32.087Z,97842.81
2022-10-25T18:49:04.174Z,97839.16
2022-10-25T18:51:36.174Z,97840.23
2022-10-25T18:54:10.723Z,97838.80
2022-10-25T18:56:44.553Z,97840.92
2022-10-25T18:59:16.781Z,97842.30
2022-10-25T19:01:48.833Z,97845.20
2022-10-25T19:04:21.033Z,97845.77
2022-10-25T19:06:53.303Z,97848.75
2022-10-25T19:09:25.521Z,97856.30
2022-10-25T19:11:57.873Z,97857.92
2022-10-25T19:14:29.821Z,97861.29
2022-10-25T19:17:02.334Z,97861.04
2022-10-25T19:19:34.502Z,97862.98
2022-10-25T19:22:07.155Z,97864.64
2022-10-25T19:24:39.343Z,97868.80
2022-10-25T19:27:12.673Z,97872.98
2022-10-25T19:29:45.614Z,97872.59
2022-10-25T19:32:20.813Z,97869.80
2022-10-25T19:34:53.103Z,97873.38
2022-10-25T19:37:26.135Z,97874.96
2022-10-25T19:39:59.024Z,97874.98
2022-10-25T19:42:31.754Z,97877.27
2022-10-25T19:45:05.109Z,97878.33
2022-10-25T19:47:38.654Z,97879.19
2022-10-25T19:50:09.702Z,97885.56
2022-10-25T19:52:44.535Z,97886.52
2022-10-25T19:55:17.971Z,97887.58
2022-10-25T19:57:50.826Z,97882.42
2022-10-25T20:00:26.294Z,97886.24
2022-10-25T20:02:58.419Z,97880.74
2022-10-25T20:05:31.124Z,97882.34
2022-10-25T20:08:03.254Z,97887.09
2022-10-25T20:10:36.098Z,97887.80
2022-10-25T20:13:09.137Z,97889.95
2022-10-25T20:15:50.674Z,97891.28
2022-10-25T20:18:23.492Z,97891.41
2022-10-25T20:21:01.277Z,97894.20
2022-10-25T20:23:33.632Z,97897.90
2022-10-25T20:26:15.484Z,97901.41
2022-10-25T20:28:48.752Z,97900.58
2022-10-25T20:31:23.441Z,97901.13
2022-10-25T20:33:56.054Z,97902.68
2022-10-25T20:36:28.847Z,97904.42
2022-10-25T20:39:00.911Z,97905.83
2022-10-25T20:41:38.377Z,97903.73
2022-10-25T20:44:11.001Z,97904.45
2022-10-25T20:46:44.303Z,97905.83
2022-10-25T20:49:16.582Z,97905.62
2022-10-25T20:51:49.844Z,97907.83
2022-10-25T20:54:22.084Z,97905.05
2022-10-25T20:56:54.154Z,97905.63
2022-10-25T20:59:26.413Z,97898.52
2022-10-25T21:01:58.581Z,97901.47
2022-10-25T21:04:42.309Z,97903.74
2022-10-25T21:07:22.941Z,97904.89
2022-10-25T21:09:55.236Z,97904.27
2022-10-25T21:12:27.944Z,97907.59
2022-10-25T21:15:00.043Z,97908.04
2022-10-25T21:17:32.122Z,97907.23
2022-10-25T21:20:04.341Z,97907.00
2022-10-25T21:22:36.683Z,97905.35
2022-10-25T21:25:10.515Z,97904.19
2022-10-25T21:27:42.701Z,97905.52
2022-10-25T21:30:15.297Z,97903.31
2022-10-25T21:32:49.532Z,97903.97
2022-10-25T21:35:22.443Z,97907.90
2022-10-25T21:37:54.584Z,97907.48
2022-10-25T21:40:27.303Z,97905.97
2022-10-25T21:43:02.161Z,97909.98
2022-10-25T21:45:34.423Z,97908.36
2022-10-25T21:48:07.181Z,97911.09
2022-10-25T21:50:39.510Z,97911.27
2022-10-25T21:53:11.561Z,97913.16
2022-10-25T21:55:43.821Z,97912.55
2022-10-25T21:58:17.523Z,97914.44
2022-10-25T22:00:49.892Z,97919.02
2022-10-25T22:03:24.226Z,97915.96
2022-10-25T22:05:59.345Z,97916.65
2022-10-25T22:08:31.634Z,97914.91
2022-10-25T22:11:06.196Z,97921.64
2022-10-25T22:13:40.074Z,97914.61
2022-10-25T22:16:17.006Z,97911.88
2022-10-25T22:18:53.915Z,97914.98
2022-10-25T22:21:26.593Z,97913.55
2022-10-25T22:23:58.653Z,97913.09
2022-10-25T22:26:30.873Z,97910.54
2022-10-25T22:29:03.139Z,97917.84
2022-10-25T22:31:35.802Z,97921.45
2022-10-25T22:34:09.662Z,97921.16
2022-10-25T22:36:43.038Z,97920.10
2022-10-25T22:39:16.895Z,97924.81
2022-10-25T22:41:53.962Z,97924.30
2022-10-25T22:44:26.285Z,97928.11
2022-10-25T22:46:58.572Z,97934.39
2022-10-25T22:49:30.943Z,97933.88
2022-10-25T22:52:03.061Z,97934.84
2022-10-25T22:54:35.096Z,97931.92
2022-10-25T22:57:07.302Z,97932.60
2022-10-25T22:59:39.483Z,97931.73
2022-10-25T23:02:12.151Z,97931.95
2022-10-25T23:04:44.263Z,97931.98
2022-10-25T23:07:16.477Z,97931.91
2022-10-25T23:09:48.576Z,97927.48
2022-10-25T23:12:21.195Z,97930.63
2022-10-25T23:14:53.361Z,97931.89
2022-10-25T23:17:25.976Z,97929.59
2022-10-25T23:19:57.923Z,97931.40
2022-10-25T23:22:30.262Z,97931.36
2022-10-25T23:25:02.191Z,97934.37
2022-10-25T23:27:34.720Z,97937.70
2022-10-25T23:30:11.100Z,97937.38
2022-10-25T23:32:45.453Z,97936.75
2022-10-25T23:35:18.014Z,97941.59
2022-10-25T23:37:51.839Z,97939.55
2022-10-25T23:40:24.941Z,97938.58
2022-10-25T23:42:57.248Z,97937.13
2022-10-25T23:45:32.333Z,97937.02
2022-10-25T23:48:04.781Z,97938.85
2022-10-25T23:50:36.743Z,97938.48
2022-10-25T23:53:10.194Z,97940.14
2022-10-25T23:55:42.524Z,97941.52
2022-10-25T23:58:15.414Z,97942.95
